createdAt,value
2019-04-06T00:01:47.392Z,7.50
2019-04-06T00:04:14.269Z,7.50
2019-04-06T00:06:41.597Z,7.40
2019-04-06T00:09:08.661Z,7.40
2019-04-06T00:11:35.932Z,7.30
2019-04-06T00:14:03.261Z,7.30
2019-04-06T00:16:30.261Z,7.20
2019-04-06T00:18:57.506Z,7.30
2019-04-06T00:21:25.805Z,7.30
2019-04-06T00:23:52.718Z,7.40
2019-04-06T00:26:19.620Z,7.40
2019-04-06T00:28:46.585Z,7.30
2019-04-06T00:31:28.918Z,7.20
2019-04-06T00:33:55.907Z,7.10
2019-04-06T00:36:22.793Z,7.20
2019-04-06T00:38:49.752Z,7.20
2019-04-06T00:41:16.645Z,7.10
2019-04-06T00:43:43.671Z,7.10
2019-04-06T00:46:10.807Z,7.00
2019-04-06T00:48:37.812Z,7.00
2019-04-06T00:51:04.957Z,7.00
2019-04-06T00:53:32.099Z,7.00
2019-04-06T00:55:59.472Z,6.90
2019-04-06T00:58:26.646Z,6.90
2019-04-06T01:00:53.605Z,6.80
2019-04-06T01:03:21.317Z,6.70
2019-04-06T01:05:52.192Z,6.70
2019-04-06T01:08:19.529Z,6.60
2019-04-06T01:10:46.466Z,6.50
2019-04-06T01:13:33.038Z,6.50
2019-04-06T01:16:00.703Z,6.50
2019-04-06T01:18:27.801Z,6.70
2019-04-06T01:20:55.062Z,6.80
2019-04-06T01:23:21.947Z,6.70
2019-04-06T01:25:48.933Z,6.70
2019-04-06T01:28:15.856Z,6.70
2019-04-06T01:30:42.977Z,6.70
2019-04-06T01:33:10.001Z,6.70
2019-04-06T01:35:36.874Z,6.70
2019-04-06T01:38:04.014Z,6.70
2019-04-06T01:40:30.955Z,6.70
2019-04-06T01:42:57.851Z,6.70
2019-04-06T01:45:24.837Z,6.80
2019-04-06T01:47:52.550Z,6.90
2019-04-06T01:50:19.642Z,6.90
2019-04-06T01:52:46.531Z,6.90
2019-04-06T01:55:13.417Z,6.80
2019-04-06T01:57:40.343Z,7.00
2019-04-06T02:00:10.352Z,7.00
2019-04-06T02:02:39.293Z,6.80
2019-04-06T02:05:08.493Z,6.80
2019-04-06T02:07:48.880Z,6.80
2019-04-06T02:10:15.951Z,6.70
2019-04-06T02:12:42.842Z,6.80
2019-04-06T02:15:10.030Z,6.60
2019-04-06T02:17:37.017Z,6.60
2019-04-06T02:20:04.576Z,6.50
2019-04-06T02:22:31.697Z,6.60
2019-04-06T02:25:11.698Z,6.60
2019-04-06T02:27:38.793Z,6.50
2019-04-06T02:30:14.953Z,6.50
2019-04-06T02:32:59.886Z,6.40
2019-04-06T02:35:44.933Z,6.40
2019-04-06T02:38:24.529Z,6.40
2019-04-06T02:40:58.083Z,6.40
2019-04-06T02:43:27.832Z,6.50
2019-04-06T02:45:55.151Z,6.40
2019-04-06T02:48:22.080Z,6.30
2019-04-06T02:50:49.066Z,6.20
2019-04-06T02:53:16.062Z,6.10
2019-04-06T02:55:43.042Z,6.10
2019-04-06T02:58:10.110Z,6.10
2019-04-06T03:00:37.194Z,6.10
2019-04-06T03:03:04.259Z,6.00
2019-04-06T03:05:31.231Z,6.00
2019-04-06T03:07:58.233Z,6.00
2019-04-06T03:10:25.562Z,6.00
2019-04-06T03:12:52.606Z,5.90
2019-04-06T03:15:19.508Z,5.90
2019-04-06T03:17:46.358Z,5.90
2019-04-06T03:20:13.571Z,5.80
2019-04-06T03:22:40.629Z,5.70
2019-04-06T03:25:09.353Z,5.70
2019-04-06T03:27:37.111Z,5.70
2019-04-06T03:30:05.112Z,5.60
2019-04-06T03:32:32.347Z,5.60
2019-04-06T03:35:19.959Z,5.60
2019-04-06T03:37:47.092Z,5.60
2019-04-06T03:40:16.238Z,5.60
2019-04-06T03:42:43.514Z,5.50
2019-04-06T03:45:10.627Z,5.50
2019-04-06T03:47:37.666Z,5.60
2019-04-06T03:50:04.991Z,5.60
2019-04-06T03:52:31.923Z,5.60
2019-04-06T03:54:59.886Z,5.50
2019-04-06T03:57:26.767Z,5.50
2019-04-06T03:59:53.993Z,5.40
2019-04-06T04:02:21.162Z,5.40
2019-04-06T04:04:48.044Z,5.30
2019-04-06T04:07:14.943Z,5.20
2019-04-06T04:09:41.822Z,5.20
2019-04-06T04:12:08.807Z,5.20
2019-04-06T04:14:35.764Z,5.10
2019-04-06T04:17:02.965Z,5.10
2019-04-06T04:19:29.884Z,5.20
2019-04-06T04:21:57.103Z,5.10
2019-04-06T04:24:24.314Z,5.00
2019-04-06T04:26:51.218Z,5.00
2019-04-06T04:29:18.113Z,4.90
2019-04-06T04:31:45.242Z,4.90
2019-04-06T04:34:12.226Z,4.80
2019-04-06T04:36:39.214Z,4.70
2019-04-06T04:39:07.060Z,4.70
2019-04-06T04:41:33.972Z,4.70
2019-04-06T04:44:00.949Z,4.60
2019-04-06T04:46:27.869Z,4.60
2019-04-06T04:48:54.884Z,4.60
2019-04-06T04:51:22.257Z,4.60
2019-04-06T04:53:49.222Z,4.50
2019-04-06T04:56:16.524Z,4.50
2019-04-06T04:58:43.709Z,4.50
2019-04-06T05:01:10.758Z,4.50
2019-04-06T05:03:37.956Z,4.70
2019-04-06T05:06:04.976Z,4.70
2019-04-06T05:08:32.175Z,4.60
2019-04-06T05:10:59.066Z,4.50
2019-04-06T05:13:26.142Z,4.40
2019-04-06T05:16:22.128Z,4.50
2019-04-06T05:18:49.232Z,4.60
2019-04-06T05:21:16.213Z,4.50
2019-04-06T05:23:43.219Z,4.50
2019-04-06T05:26:10.595Z,4.50
2019-04-06T05:28:37.952Z,4.50
2019-04-06T05:31:05.074Z,4.60
2019-04-06T05:33:32.099Z,4.60
2019-04-06T05:35:59.008Z,4.60
2019-04-06T05:38:25.987Z,4.80
2019-04-06T05:40:52.995Z,5.00
2019-04-06T05:43:19.961Z,5.10
2019-04-06T05:45:47.242Z,5.00
2019-04-06T05:48:14.513Z,4.90
2019-04-06T05:50:41.738Z,5.00
2019-04-06T05:53:09.007Z,5.10
2019-04-06T05:55:36.419Z,5.10
2019-04-06T05:58:04.854Z,5.10
2019-04-06T06:00:33.016Z,5.10
2019-04-06T06:03:00.021Z,5.10
2019-04-06T06:05:27.646Z,5.10
2019-04-06T06:07:54.681Z,5.30
2019-04-06T06:10:21.648Z,5.30
2019-04-06T06:12:48.686Z,5.30
2019-04-06T06:15:16.214Z,5.30
2019-04-06T06:17:43.344Z,5.30
2019-04-06T06:20:10.696Z,5.50
2019-04-06T06:22:37.594Z,5.50
2019-04-06T06:25:05.383Z,5.50
2019-04-06T06:27:32.639Z,5.40
2019-04-06T06:29:59.525Z,5.50
2019-04-06T06:32:26.583Z,5.50
2019-04-06T06:34:53.907Z,5.60
2019-04-06T06:37:20.836Z,5.60
2019-04-06T06:39:47.943Z,5.80
2019-04-06T06:45:52.216Z,6.00
2019-04-06T06:48:19.656Z,6.10
2019-04-06T06:50:46.674Z,6.20
2019-04-06T06:53:13.859Z,6.30
2019-04-06T06:55:40.733Z,6.40
2019-04-06T06:58:07.773Z,6.60
2019-04-06T07:00:46.614Z,6.70
2019-04-06T07:03:14.230Z,6.80
2019-04-06T07:05:41.491Z,6.90
2019-04-06T07:08:09.720Z,7.30
2019-04-06T07:10:36.665Z,7.50
2019-04-06T07:13:03.825Z,7.60
2019-04-06T07:15:30.949Z,7.50
2019-04-06T07:17:58.254Z,7.70
2019-04-06T07:20:25.121Z,7.80
2019-04-06T07:22:56.345Z,7.90
2019-04-06T07:25:23.350Z,8.00
2019-04-06T07:27:50.390Z,8.00
2019-04-06T07:30:17.958Z,8.10
2019-04-06T07:32:45.001Z,8.60
2019-04-06T07:35:12.094Z,8.90
2019-04-06T07:37:39.342Z,9.30
2019-04-06T07:40:06.627Z,9.70
2019-04-06T07:42:33.927Z,10.10
2019-04-06T07:45:00.990Z,10.30
2019-04-06T07:47:28.000Z,10.40
2019-04-06T07:49:55.016Z,10.50
2019-04-06T07:52:21.947Z,10.70
2019-04-06T07:54:48.821Z,10.70
2019-04-06T07:57:16.014Z,10.50
2019-04-06T07:59:43.153Z,10.50
2019-04-06T08:02:10.080Z,10.90
2019-04-06T08:04:37.498Z,11.20
2019-04-06T08:07:04.821Z,11.40
2019-04-06T08:09:31.948Z,11.50
2019-04-06T08:11:58.975Z,11.60
2019-04-06T08:14:26.875Z,11.70
2019-04-06T08:16:54.349Z,11.90
2019-04-06T08:19:21.593Z,12.20
2019-04-06T08:21:48.756Z,12.10
2019-04-06T08:24:15.619Z,11.90
2019-04-06T08:26:42.633Z,11.70
2019-04-06T08:29:09.671Z,11.50
2019-04-06T08:31:36.677Z,11.40
2019-04-06T08:34:03.986Z,11.20
2019-04-06T08:36:31.381Z,11.00
2019-04-06T08:38:58.717Z,11.10
2019-04-06T08:41:25.708Z,11.20
2019-04-06T08:43:52.870Z,11.30
2019-04-06T08:46:19.741Z,11.40
2019-04-06T08:48:46.765Z,11.50
2019-04-06T08:51:13.828Z,11.60
2019-04-06T08:53:40.922Z,11.70
2019-04-06T08:56:07.805Z,11.90
2019-04-06T08:58:34.698Z,11.90
2019-04-06T09:01:01.930Z,12.00
2019-04-06T09:03:29.269Z,12.00
2019-04-06T09:05:56.249Z,12.10
2019-04-06T09:08:23.373Z,12.10
2019-04-06T09:10:50.348Z,12.10
2019-04-06T09:13:18.257Z,12.00
2019-04-06T09:15:45.265Z,12.00
2019-04-06T09:18:12.189Z,12.10
2019-04-06T09:20:39.112Z,12.10
2019-04-06T09:23:05.962Z,12.30
2019-04-06T09:25:33.517Z,12.50
2019-04-06T09:28:00.703Z,12.60
2019-04-06T09:30:28.744Z,12.70
2019-04-06T09:32:55.630Z,12.70
2019-04-06T09:35:22.609Z,12.80
2019-04-06T09:37:49.571Z,12.80
2019-04-06T09:40:16.896Z,12.90
2019-04-06T09:42:44.309Z,12.80
2019-04-06T09:45:41.558Z,12.70
2019-04-06T09:48:28.590Z,12.60
2019-04-06T09:51:05.410Z,12.90
2019-04-06T09:53:44.016Z,13.10
2019-04-06T09:56:20.827Z,13.30
2019-04-06T09:58:54.496Z,13.80
2019-04-06T10:01:40.830Z,14.20
2019-04-06T10:04:17.669Z,14.50
2019-04-06T10:07:10.131Z,14.70
2019-04-06T10:09:55.985Z,15.00
2019-04-06T10:12:38.962Z,15.20
2019-04-06T10:15:26.045Z,15.50
2019-04-06T10:18:21.561Z,15.50
2019-04-06T10:21:06.789Z,15.40
2019-04-06T10:23:47.455Z,15.40
2019-04-06T10:26:37.165Z,15.10
2019-04-06T10:29:21.814Z,14.90
2019-04-06T10:31:59.922Z,14.70
2019-04-06T10:34:39.558Z,14.50
2019-04-06T10:37:21.684Z,14.60
2019-04-06T10:40:07.521Z,14.80
2019-04-06T10:42:54.378Z,14.80
2019-04-06T10:45:37.639Z,14.80
2019-04-06T10:48:11.473Z,14.70
2019-04-06T10:51:03.162Z,14.50
2019-04-06T10:53:48.655Z,14.50
2019-04-06T10:56:26.748Z,14.50
2019-04-06T10:59:05.210Z,14.70
2019-04-06T11:01:50.426Z,14.90
2019-04-06T11:04:27.458Z,15.10
2019-04-06T11:07:13.433Z,15.20
2019-04-06T11:09:48.376Z,15.30
2019-04-06T11:12:25.240Z,15.30
2019-04-06T11:15:01.746Z,15.30
2019-04-06T11:17:52.947Z,15.40
2019-04-06T11:20:38.643Z,15.40
2019-04-06T11:23:16.458Z,15.50
2019-04-06T11:25:50.261Z,15.40
2019-04-06T11:28:29.509Z,15.40
2019-04-06T11:31:08.857Z,15.20
2019-04-06T11:33:43.910Z,14.90
2019-04-06T11:36:40.318Z,14.80
2019-04-06T11:39:36.383Z,14.80
2019-04-06T11:42:21.918Z,14.90
2019-04-06T11:44:59.062Z,15.00
2019-04-06T11:47:44.134Z,15.20
2019-04-06T11:50:33.728Z,15.10
2019-04-06T11:53:18.582Z,15.40
2019-04-06T11:56:03.974Z,15.80
2019-04-06T11:59:00.781Z,16.00
2019-04-06T12:01:50.333Z,15.90
2019-04-06T12:04:26.037Z,15.60
2019-04-06T12:07:09.049Z,15.30
2019-04-06T12:09:45.849Z,15.20
2019-04-06T12:12:20.025Z,15.00
2019-04-06T12:15:15.477Z,15.00
2019-04-06T12:17:50.937Z,15.00
2019-04-06T12:20:36.596Z,15.00
2019-04-06T12:23:22.226Z,14.80
2019-04-06T12:25:58.040Z,14.90
2019-04-06T12:28:38.088Z,15.10
2019-04-06T12:31:23.353Z,15.20
2019-04-06T12:33:58.759Z,15.30
2019-04-06T12:36:51.636Z,15.20
2019-04-06T12:39:25.628Z,15.10
2019-04-06T12:42:03.313Z,15.00
2019-04-06T12:44:48.788Z,14.90
2019-04-06T12:47:34.477Z,14.90
2019-04-06T12:50:32.198Z,14.80
2019-04-06T12:53:19.755Z,14.80
2019-04-06T12:56:09.281Z,14.70
2019-04-06T12:58:43.406Z,14.70
2019-04-06T13:01:25.933Z,14.80
2019-04-06T13:04:18.378Z,14.80
2019-04-06T13:07:03.929Z,14.80
2019-04-06T13:09:49.896Z,14.80
2019-04-06T13:12:27.627Z,15.00
2019-04-06T13:15:05.145Z,14.90
2019-04-06T13:17:45.061Z,14.80
2019-04-06T13:20:30.068Z,14.80
2019-04-06T13:23:19.617Z,14.80
2019-04-06T13:26:11.905Z,14.70
2019-04-06T13:29:01.374Z,14.70
2019-04-06T13:31:46.154Z,14.80
2019-04-06T13:34:39.130Z,14.90
2019-04-06T13:37:16.573Z,15.00
2019-04-06T13:39:53.350Z,15.00
2019-04-06T13:42:45.814Z,15.00
2019-04-06T13:45:35.859Z,15.00
2019-04-06T13:48:18.386Z,14.90
2019-04-06T13:50:50.820Z,14.90
2019-04-06T13:53:23.475Z,14.90
2019-04-06T13:56:09.801Z,14.80
2019-04-06T13:58:56.664Z,14.70
2019-04-06T14:01:52.462Z,14.60
2019-04-06T14:04:51.807Z,14.50
2019-04-06T14:07:30.799Z,14.50
2019-04-06T14:10:12.468Z,14.50
2019-04-06T14:12:58.159Z,14.50
2019-04-06T14:15:47.783Z,14.50
2019-04-06T14:18:53.645Z,14.40
2019-04-06T14:21:40.150Z,14.40
2019-04-06T14:24:25.485Z,14.30
2019-04-06T14:27:30.360Z,14.30
2019-04-06T14:30:12.750Z,14.40
2019-04-06T14:33:14.425Z,14.40
2019-04-06T14:36:00.164Z,14.50
2019-04-06T14:38:49.737Z,14.50
2019-04-06T14:41:35.479Z,14.60
2019-04-06T14:44:20.941Z,14.90
2019-04-06T14:46:58.346Z,15.00
2019-04-06T14:49:48.114Z,15.20
2019-04-06T14:52:47.388Z,15.20
2019-04-06T14:55:22.301Z,15.40
2019-04-06T14:57:57.869Z,15.70
2019-04-06T15:00:47.455Z,15.70
2019-04-06T15:03:33.502Z,15.80
2019-04-06T15:06:20.611Z,15.90
2019-04-06T15:09:25.158Z,16.00
2019-04-06T15:12:05.033Z,16.10
2019-04-06T15:15:00.470Z,16.10
2019-04-06T15:18:03.201Z,16.10
2019-04-06T15:20:40.558Z,16.00
2019-04-06T15:23:27.330Z,16.00
2019-04-06T15:26:03.382Z,15.90
2019-04-06T15:28:53.012Z,15.80
2019-04-06T15:31:48.485Z,15.80
2019-04-06T15:34:33.979Z,15.80
2019-04-06T15:37:12.430Z,15.70
2019-04-06T15:39:54.658Z,15.70
2019-04-06T15:42:41.620Z,15.60
2019-04-06T15:45:32.618Z,15.50
2019-04-06T15:48:36.473Z,15.40
2019-04-06T15:51:16.874Z,15.20
2019-04-06T15:53:54.004Z,15.10
2019-04-06T15:56:30.291Z,15.10
2019-04-06T15:59:09.589Z,15.10
2019-04-06T16:01:46.223Z,15.00
2019-04-06T16:04:39.111Z,15.00
2019-04-06T16:07:33.102Z,14.90
2019-04-06T16:10:12.248Z,14.80
2019-04-06T16:12:58.123Z,14.60
2019-04-06T16:15:43.415Z,14.50
2019-04-06T16:18:39.110Z,14.50
2019-04-06T16:21:29.081Z,14.40
2019-04-06T16:24:14.548Z,14.40
2019-04-06T16:27:01.654Z,14.40
2019-04-06T16:29:44.853Z,14.30
2019-04-06T16:32:32.373Z,14.40
2019-04-06T16:35:11.627Z,14.20
2019-04-06T16:38:01.156Z,14.10
2019-04-06T16:40:53.729Z,14.10
2019-04-06T16:43:32.372Z,14.00
2019-04-06T16:46:22.456Z,14.00
2019-04-06T16:49:15.120Z,14.00
2019-04-06T16:52:05.509Z,13.90
2019-04-06T16:54:39.692Z,13.90
2019-04-06T16:57:27.818Z,13.90
2019-04-06T17:00:03.482Z,13.90
2019-04-06T17:02:41.336Z,13.80
2019-04-06T17:05:25.125Z,13.80
2019-04-06T17:08:10.191Z,13.70
2019-04-06T17:10:51.732Z,13.70
2019-04-06T17:13:37.206Z,13.60
2019-04-06T17:16:23.899Z,13.60
2019-04-06T17:18:57.080Z,13.50
2019-04-06T17:21:42.634Z,13.50
2019-04-06T17:24:36.258Z,13.40
2019-04-06T17:27:31.886Z,13.40
2019-04-06T17:30:07.490Z,13.30
2019-04-06T17:32:52.837Z,13.30
2019-04-06T17:35:31.188Z,13.20
2019-04-06T17:38:27.032Z,13.10
2019-04-06T17:41:01.822Z,13.10
2019-04-06T17:43:51.984Z,13.00
2019-04-06T17:46:42.387Z,13.00
2019-04-06T17:49:28.244Z,12.90
2019-04-06T17:52:10.154Z,12.90
2019-04-06T17:55:06.840Z,12.80
2019-04-06T17:57:49.071Z,12.80
2019-04-06T18:00:35.231Z,12.80
2019-04-06T18:03:21.949Z,12.80
2019-04-06T18:06:07.799Z,12.70
2019-04-06T18:08:54.922Z,12.70
2019-04-06T18:11:44.985Z,12.70
2019-04-06T18:14:12.343Z,12.70
2019-04-06T18:16:40.131Z,12.70
2019-04-06T18:19:07.260Z,12.70
2019-04-06T18:21:34.575Z,12.70
2019-04-06T18:24:02.044Z,12.60
2019-04-06T18:26:29.202Z,12.50
2019-04-06T18:28:56.361Z,12.50
2019-04-06T18:31:35.797Z,12.50
2019-04-06T18:34:02.950Z,12.50
2019-04-06T18:36:52.767Z,12.50
2019-04-06T18:39:19.680Z,12.50
2019-04-06T18:41:46.669Z,12.40
2019-04-06T18:44:13.547Z,12.30
2019-04-06T18:46:40.685Z,12.30
2019-04-06T18:49:20.174Z,12.30
2019-04-06T18:51:47.849Z,12.20
2019-04-06T18:54:15.469Z,12.20
2019-04-06T18:56:42.541Z,12.20
2019-04-06T18:59:09.417Z,12.20
2019-04-06T19:01:36.855Z,12.10
2019-04-06T19:04:03.922Z,12.10
2019-04-06T19:06:32.035Z,12.10
2019-04-06T19:08:59.559Z,12.10
2019-04-06T19:11:26.582Z,12.10
2019-04-06T19:13:53.734Z,12.10
2019-04-06T19:16:20.758Z,12.10
2019-04-06T19:18:47.744Z,12.10
2019-04-06T19:21:15.214Z,12.10
2019-04-06T19:23:42.751Z,12.00
2019-04-06T19:26:09.985Z,12.00
2019-04-06T19:28:36.962Z,12.00
2019-04-06T19:31:04.586Z,12.10
2019-04-06T19:33:31.598Z,12.00
2019-04-06T19:35:58.761Z,12.00
2019-04-06T19:38:25.919Z,12.00
2019-04-06T19:40:53.008Z,12.00
2019-04-06T19:43:20.274Z,12.00
2019-04-06T19:45:47.457Z,12.10
2019-04-06T19:48:14.480Z,12.20
2019-04-06T19:50:41.921Z,12.20
2019-04-06T19:53:08.940Z,12.20
2019-04-06T19:55:35.998Z,12.20
2019-04-06T19:58:03.062Z,12.30
2019-04-06T20:00:30.163Z,12.30
2019-04-06T20:02:57.848Z,12.30
2019-04-06T20:05:25.146Z,12.40
2019-04-06T20:07:52.411Z,12.40
2019-04-06T20:10:19.721Z,12.40
2019-04-06T20:12:47.059Z,12.50
2019-04-06T20:15:14.784Z,12.50
2019-04-06T20:17:41.878Z,12.50
2019-04-06T20:20:09.011Z,12.50
2019-04-06T20:22:36.476Z,12.50
2019-04-06T20:25:04.632Z,12.50
2019-04-06T20:27:32.636Z,12.50
2019-04-06T20:29:59.959Z,12.50
2019-04-06T20:32:27.785Z,12.50
2019-04-06T20:34:55.042Z,12.50
2019-04-06T20:37:22.082Z,12.40
2019-04-06T20:39:49.230Z,12.40
2019-04-06T20:42:16.714Z,12.30
2019-04-06T20:44:43.649Z,12.30
2019-04-06T20:47:11.372Z,12.30
2019-04-06T20:49:38.458Z,12.50
2019-04-06T20:52:05.939Z,12.60
2019-04-06T20:54:33.036Z,12.60
2019-04-06T20:57:00.446Z,12.60
2019-04-06T20:59:27.513Z,12.60
2019-04-06T21:01:54.406Z,12.50
2019-04-06T21:04:21.656Z,12.40
2019-04-06T21:06:49.187Z,12.40
2019-04-06T21:09:16.337Z,12.40
2019-04-06T21:11:43.299Z,12.40
2019-04-06T21:14:10.285Z,12.30
2019-04-06T21:16:37.673Z,12.30
2019-04-06T21:19:05.392Z,12.20
2019-04-06T21:21:33.762Z,12.20
2019-04-06T21:24:01.707Z,12.20
2019-04-06T21:26:29.017Z,12.20
2019-04-06T21:28:56.571Z,12.30
2019-04-06T21:31:24.281Z,12.30
2019-04-06T21:33:51.389Z,12.30
2019-04-06T21:36:18.429Z,12.40
2019-04-06T21:38:45.998Z,12.30
2019-04-06T21:41:13.046Z,12.30
2019-04-06T21:43:40.265Z,12.30
2019-04-06T21:46:07.741Z,12.30
2019-04-06T21:48:35.226Z,12.30
2019-04-06T21:51:02.890Z,12.30
2019-04-06T21:53:29.951Z,12.30
2019-04-06T21:56:04.033Z,12.40
2019-04-06T21:58:27.063Z,12.40
2019-04-06T22:00:56.713Z,12.30
2019-04-06T22:03:28.448Z,12.30
2019-04-06T22:05:57.187Z,12.30
2019-04-06T22:08:44.370Z,12.30
2019-04-06T22:11:11.940Z,12.30
2019-04-06T22:13:38.899Z,12.20
2019-04-06T22:16:06.291Z,12.10
2019-04-06T22:18:33.921Z,12.00
2019-04-06T22:21:01.272Z,11.90
2019-04-06T22:24:03.093Z,11.80
2019-04-06T22:26:30.504Z,11.80
2019-04-06T22:28:57.395Z,11.80
2019-04-06T22:31:24.445Z,11.80
2019-04-06T22:33:51.697Z,11.70
2019-04-06T22:36:18.930Z,11.70
2019-04-06T22:38:46.040Z,11.70
2019-04-06T22:41:13.268Z,11.60
2019-04-06T22:43:40.424Z,11.60
2019-04-06T22:46:09.282Z,11.50
2019-04-06T22:48:36.379Z,11.50
2019-04-06T22:51:03.514Z,11.40
2019-04-06T22:53:30.573Z,11.40
2019-04-06T22:55:57.490Z,11.30
2019-04-06T22:58:25.299Z,11.30
2019-04-06T23:01:00.086Z,11.30
2019-04-06T23:03:45.750Z,11.20
2019-04-06T23:06:16.711Z,11.20
2019-04-06T23:08:43.896Z,11.20
2019-04-06T23:11:10.814Z,11.20
2019-04-06T23:13:38.501Z,11.10
2019-04-06T23:16:05.893Z,11.10
2019-04-06T23:18:33.373Z,11.10
2019-04-06T23:21:00.479Z,11.10
2019-04-06T23:23:29.144Z,11.10
2019-04-06T23:25:56.072Z,11.10
2019-04-06T23:28:23.883Z,11.10
2019-04-06T23:30:51.055Z,11.10
2019-04-06T23:33:17.986Z,11.10
2019-04-06T23:35:44.971Z,11.10
2019-04-06T23:38:12.303Z,11.10
2019-04-06T23:40:39.377Z,11.10
2019-04-06T23:43:06.289Z,11.10
2019-04-06T23:45:33.647Z,11.10
2019-04-06T23:48:00.554Z,11.10
2019-04-06T23:50:27.437Z,11.00
2019-04-06T23:52:54.638Z,11.00
2019-04-06T23:55:59.849Z,11.10
2019-04-06T23:58:26.879Z,11.20
